Time;durP1;ratioP1;P1;durP2;ratioP2;P2;SDS_P1;SDS_P2;PMS_P1;PMS_P2;Temp;Humidity;BMP_temperature;BMP_pressure;BME280_temperature;BME280_humidity;BME280_pressure;Samples;Min_cycle;Max_cycle;Signal;HPM_P1;HPM_P2
2022/03/09 00:01:29;;;;;;;0.60;0.60;;;0.50;69.90;;;;;;4993469;28;20026;-74
2022/03/09 00:03:56;;;;;;;1.70;1.60;;;0.50;69.70;;;;;;4993414;28;20030;-74
2022/03/09 00:06:21;;;;;;;0.50;0.50;;;0.50;69.90;;;;;;4993347;28;20030;-74
2022/03/09 00:08:47;;;;;;;1.88;1.77;;;0.30;69.80;;;;;;4993498;28;20482;-73
2022/03/09 00:11:13;;;;;;;3.40;1.63;;;0.10;70.60;;;;;;4993572;28;20053;-74
2022/03/09 00:13:39;;;;;;;76.43;10.43;;;-0.10;71.60;;;;;;4993365;28;20081;-73
2022/03/09 00:16:04;;;;;;;0.60;0.60;;;-0.10;72.00;;;;;;4993025;28;20031;-73
2022/03/09 00:18:30;;;;;;;0.50;0.50;;;-0.10;72.00;;;;;;4993266;28;20023;-73
2022/03/09 00:20:56;;;;;;;0.70;0.70;;;0.00;71.70;;;;;;4992965;28;20029;-73
2022/03/09 00:23:22;;;;;;;0.60;0.60;;;0.00;71.90;;;;;;4992981;28;20033;-73
2022/03/09 00:25:47;;;;;;;0.60;0.60;;;-0.20;71.90;;;;;;4993093;28;20054;-73
2022/03/09 00:28:13;;;;;;;3.20;2.08;;;-0.20;72.50;;;;;;4993383;28;20493;-73
2022/03/09 00:30:39;;;;;;;0.60;0.60;;;-0.10;72.80;;;;;;4993002;28;20034;-73
2022/03/09 00:33:04;;;;;;;0.50;0.50;;;-0.20;72.30;;;;;;4993098;28;20109;-74
2022/03/09 00:35:30;;;;;;;1.45;1.23;;;-0.10;73.00;;;;;;4992784;28;20030;-73
2022/03/09 00:37:56;;;;;;;0.40;0.40;;;-0.10;72.50;;;;;;4993035;28;20030;-73
2022/03/09 00:40:22;;;;;;;0.40;0.40;;;0.00;72.10;;;;;;4992922;28;20614;-73
2022/03/09 00:42:48;;;;;;;2.75;1.35;;;0.00;72.10;;;;;;4992957;28;20026;-73
2022/03/09 00:45:14;;;;;;;0.68;0.68;;;0.20;71.60;;;;;;4992773;28;20121;-73
2022/03/09 00:47:39;;;;;;;0.50;0.50;;;0.40;71.10;;;;;;4992795;28;20041;-73
2022/03/09 00:50:06;;;;;;;0.93;0.93;;;0.40;70.30;;;;;;5007984;28;20557;-73
2022/03/09 00:52:32;;;;;;;0.95;0.70;;;0.40;70.40;;;;;;4992768;28;20084;-73
2022/03/09 00:54:58;;;;;;;0.50;0.50;;;0.40;70.00;;;;;;4992732;28;20026;-73
2022/03/09 00:57:23;;;;;;;1.15;1.15;;;0.40;70.10;;;;;;4992469;28;20434;-73
2022/03/09 00:59:49;;;;;;;0.45;0.45;;;0.50;69.90;;;;;;4992708;28;20022;-73
2022/03/09 01:02:15;;;;;;;1.00;1.00;;;0.40;70.20;;;;;;4992761;28;20034;-73
2022/03/09 01:04:41;;;;;;;0.77;0.77;;;0.30;70.20;;;;;;4992807;28;20092;-72
2022/03/09 01:07:06;;;;;;;0.50;0.50;;;0.50;69.80;;;;;;4992405;28;20438;-72
2022/03/09 01:09:32;;;;;;;0.55;0.55;;;0.40;69.80;;;;;;4992561;28;20026;-72
2022/03/09 01:11:58;;;;;;;0.43;0.43;;;0.40;70.00;;;;;;4992561;28;20567;-73
2022/03/09 01:14:24;;;;;;;0.45;0.45;;;0.40;69.50;;;;;;4992458;28;20533;-74
2022/03/09 01:16:50;;;;;;;1.67;1.65;;;0.40;69.50;;;;;;4992380;28;20073;-73
2022/03/09 01:19:16;;;;;;;1.00;1.00;;;0.40;69.20;;;;;;4992601;28;20023;-73
2022/03/09 01:21:42;;;;;;;0.50;0.50;;;0.40;69.20;;;;;;4992508;28;20022;-73
2022/03/09 01:24:08;;;;;;;0.50;0.50;;;0.40;69.10;;;;;;4992554;28;20072;-74
2022/03/09 01:26:34;;;;;;;1.30;1.30;;;0.40;69.00;;;;;;4992405;28;20030;-73
2022/03/09 01:29:00;;;;;;;2.17;2.05;;;0.50;69.10;;;;;;4992458;28;20026;-73
2022/03/09 01:31:26;;;;;;;0.50;0.50;;;0.60;68.30;;;;;;4992386;28;20026;-73
2022/03/09 01:33:51;;;;;;;3.90;2.58;;;0.70;67.70;;;;;;4995250;28;20030;-73
2022/03/09 01:36:17;;;;;;;0.50;0.50;;;0.70;67.70;;;;;;4996141;28;20089;-73
2022/03/09 01:38:43;;;;;;;0.47;0.47;;;0.70;67.70;;;;;;4996202;28;20030;-73
2022/03/09 01:41:09;;;;;;;0.50;0.50;;;0.50;67.70;;;;;;4996193;28;20023;-73
2022/03/09 01:43:35;;;;;;;3.05;2.85;;;0.10;69.10;;;;;;4995979;28;20034;-73
2022/03/09 01:46:00;;;;;;;0.50;0.50;;;0.00;69.80;;;;;;4995917;28;20037;-73
2022/03/09 01:48:26;;;;;;;1.38;0.95;;;-0.20;70.20;;;;;;4996103;28;20038;-73
2022/03/09 01:50:52;;;;;;;0.80;0.80;;;-0.40;70.40;;;;;;4996124;28;20110;-73
2022/03/09 01:53:18;;;;;;;0.95;0.95;;;-0.50;71.40;;;;;;4996041;28;20084;-73
2022/03/09 01:55:45;;;;;;;7.95;7.05;;;-0.50;72.00;;;;;;4995636;28;20065;-73
2022/03/09 01:58:10;;;;;;;0.40;0.40;;;-0.60;72.20;;;;;;4995864;28;20382;-73
2022/03/09 02:00:36;;;;;;;0.40;0.40;;;-0.40;71.70;;;;;;4995878;28;20022;-73
2022/03/09 02:03:02;;;;;;;1.10;1.10;;;-0.40;71.90;;;;;;4995800;28;20082;-73
2022/03/09 02:05:28;;;;;;;0.77;0.77;;;-0.40;71.30;;;;;;4994391;28;20030;-74
2022/03/09 02:10:39;;;;;;;0.47;0.47;;;-0.50;72.20;;;;;;4995584;28;20026;-74
2022/03/09 02:13:04;;;;;;;1.55;1.48;;;-0.30;72.00;;;;;;4994342;28;20390;-74
2022/03/09 02:15:30;;;;;;;0.73;0.73;;;-0.30;71.30;;;;;;4995248;28;20038;-74
2022/03/09 02:17:59;;;;;;;0.68;0.68;;;-0.50;71.50;;;;;;4995562;28;20080;-74
2022/03/09 02:20:25;;;;;;;3.08;2.88;;;-0.30;72.10;;;;;;4995482;28;20105;-74
2022/03/09 02:22:53;;;;;;;0.60;0.60;;;-0.30;71.00;;;;;;4995398;28;20026;-74
2022/03/09 02:25:20;;;;;;;1.55;1.25;;;-0.20;71.30;;;;;;4995318;28;20050;-73
2022/03/09 02:27:46;;;;;;;0.60;0.60;;;-0.20;70.90;;;;;;4995308;28;20027;-73
2022/03/09 02:30:14;;;;;;;0.50;0.50;;;-0.30;70.60;;;;;;4995622;28;20030;-73
2022/03/09 02:32:49;;;;;;;0.50;0.50;;;-0.50;71.10;;;;;;4995274;28;20485;-73
2022/03/09 02:35:18;;;;;;;0.50;0.50;;;-0.60;71.50;;;;;;4993971;28;20026;-73
2022/03/09 02:37:45;;;;;;;0.50;0.50;;;-0.70;72.30;;;;;;4994866;28;20113;-73
2022/03/09 02:40:12;;;;;;;0.50;0.50;;;-0.80;71.80;;;;;;4995202;28;20018;-73
2022/03/09 02:42:39;;;;;;;4.95;1.60;;;-1.00;72.80;;;;;;4995294;28;20022;-73
2022/03/09 02:45:06;;;;;;;0.60;0.60;;;-1.00;72.90;;;;;;4994464;28;20474;-73
2022/03/09 02:47:32;;;;;;;1.27;1.23;;;-1.10;72.70;;;;;;4994849;28;20031;-73
2022/03/09 02:49:58;;;;;;;0.52;0.52;;;-1.10;74.00;;;;;;4995056;28;20030;-73
2022/03/09 02:52:24;;;;;;;0.80;0.80;;;-1.10;74.10;;;;;;4993566;28;20092;-73
2022/03/09 02:54:50;;;;;;;0.60;0.60;;;-1.10;73.90;;;;;;4994768;28;20035;-73
2022/03/09 02:57:19;;;;;;;0.40;0.40;;;-1.10;73.20;;;;;;4994596;28;20034;-73
2022/03/09 02:59:47;;;;;;;13.82;2.30;;;-1.00;73.70;;;;;;4994840;28;20030;-73
2022/03/09 03:02:13;;;;;;;1.02;1.02;;;-1.00;73.00;;;;;;4994770;28;20049;-73
2022/03/09 03:04:38;;;;;;;0.50;0.50;;;-0.90;73.20;;;;;;4994654;28;20030;-73
2022/03/09 03:07:04;;;;;;;0.60;0.60;;;-0.90;72.40;;;;;;4994389;28;20541;-73
2022/03/09 03:09:30;;;;;;;0.70;0.70;;;-0.90;72.50;;;;;;4994720;28;20041;-73
2022/03/09 03:11:56;;;;;;;0.50;0.50;;;-1.20;72.80;;;;;;4994543;28;20056;-72
2022/03/09 03:14:21;;;;;;;0.50;0.50;;;-1.30;73.10;;;;;;4994504;28;20410;-73
2022/03/09 03:16:47;;;;;;;2.40;2.25;;;-1.30;74.00;;;;;;4994255;28;20084;-73
2022/03/09 03:19:14;;;;;;;1.10;1.10;;;-1.10;73.50;;;;;;4993283;28;20078;-74
2022/03/09 03:21:40;;;;;;;0.50;0.50;;;-0.80;72.40;;;;;;4994553;28;20126;-74
2022/03/09 03:24:06;;;;;;;0.55;0.55;;;-0.80;71.80;;;;;;4994382;28;20026;-73
2022/03/09 03:26:31;;;;;;;0.70;0.70;;;-0.90;71.70;;;;;;4994128;28;20441;-74
2022/03/09 03:28:58;;;;;;;0.88;0.88;;;-1.00;72.00;;;;;;4994166;28;20018;-73
2022/03/09 03:31:24;;;;;;;0.68;0.68;;;-1.20;73.00;;;;;;4994175;28;20030;-74
2022/03/09 03:33:50;;;;;;;1.38;1.27;;;-1.30;73.40;;;;;;4994035;28;20372;-74
2022/03/09 03:36:16;;;;;;;0.90;0.85;;;-1.30;74.00;;;;;;4994221;28;20522;-74
2022/03/09 03:38:42;;;;;;;0.40;0.40;;;-1.20;73.30;;;;;;4994125;28;20414;-74
2022/03/09 03:41:08;;;;;;;0.98;0.98;;;-0.90;72.30;;;;;;4993949;28;20041;-74
2022/03/09 03:43:34;;;;;;;0.50;0.50;;;-0.60;71.50;;;;;;4993902;28;20025;-72
2022/03/09 03:46:00;;;;;;;0.50;0.50;;;-0.60;70.10;;;;;;4993677;28;20041;-73
2022/03/09 03:48:26;;;;;;;0.70;0.70;;;-0.60;70.90;;;;;;4993943;28;20053;-73
2022/03/09 03:50:51;;;;;;;0.70;0.70;;;-0.50;69.80;;;;;;4993757;28;20487;-72
2022/03/09 03:53:17;;;;;;;9.85;2.45;;;-0.40;69.60;;;;;;4993746;28;20033;-72
2022/03/09 03:55:44;;;;;;;4.50;1.75;;;-0.10;69.00;;;;;;4992988;28;20022;-72
2022/03/09 03:58:11;;;;;;;0.60;0.60;;;-0.40;68.30;;;;;;4975930;28;20036;-72
2022/03/09 04:00:37;;;;;;;1.05;0.95;;;-0.90;69.60;;;;;;4994113;28;20379;-72
2022/03/09 04:03:03;;;;;;;2.80;1.00;;;-1.00;70.90;;;;;;4993514;28;20026;-72
2022/03/09 04:05:29;;;;;;;0.50;0.50;;;-1.00;70.70;;;;;;4993397;28;20538;-73
2022/03/09 04:07:55;;;;;;;0.60;0.60;;;-1.20;71.70;;;;;;4993361;28;20073;-72
2022/03/09 04:10:21;;;;;;;0.60;0.60;;;-1.10;71.50;;;;;;4993527;28;20022;-72
2022/03/09 04:12:47;;;;;;;0.50;0.50;;;-1.10;71.70;;;;;;4993451;28;20088;-72
2022/03/09 04:15:12;;;;;;;0.45;0.45;;;-1.20;71.50;;;;;;4993293;28;20023;-72
2022/03/09 04:17:42;;;;;;;1.17;1.13;;;-1.40;72.10;;;;;;4993034;28;20030;-72
2022/03/09 04:20:09;;;;;;;0.50;0.50;;;-1.50;71.90;;;;;;4993443;28;20029;-72
2022/03/09 04:22:35;;;;;;;0.50;0.50;;;-1.60;72.80;;;;;;4993275;28;20028;-72
2022/03/09 04:25:02;;;;;;;0.80;0.80;;;-1.50;72.80;;;;;;4992019;28;20395;-72
2022/03/09 04:27:28;;;;;;;0.60;0.60;;;-1.20;72.40;;;;;;4991776;28;20081;-72
2022/03/09 04:29:54;;;;;;;0.50;0.50;;;-1.10;72.10;;;;;;4993178;28;20434;-72
2022/03/09 04:32:19;;;;;;;1.13;1.02;;;-1.00;71.70;;;;;;4992971;28;20060;-72
2022/03/09 04:34:45;;;;;;;0.50;0.50;;;-1.10;71.60;;;;;;4993075;28;20033;-73
2022/03/09 04:37:11;;;;;;;0.50;0.50;;;-1.00;72.00;;;;;;4993030;28;20030;-72
2022/03/09 04:39:37;;;;;;;0.50;0.50;;;-0.80;71.60;;;;;;4993052;28;20030;-72
2022/03/09 04:42:03;;;;;;;0.50;0.50;;;-0.70;71.00;;;;;;4992936;28;20157;-73
2022/03/09 04:44:29;;;;;;;1.10;1.10;;;-0.60;71.10;;;;;;4992854;28;20145;-73
2022/03/09 04:46:54;;;;;;;0.55;0.55;;;-0.40;70.60;;;;;;4992590;28;20438;-74
2022/03/09 04:49:20;;;;;;;0.50;0.50;;;-0.70;70.50;;;;;;4992873;28;20022;-74
2022/03/09 04:51:46;;;;;;;0.40;0.40;;;-0.90;71.20;;;;;;4992962;28;20081;-74
2022/03/09 04:54:12;;;;;;;17.73;2.67;;;-1.00;71.60;;;;;;4993026;28;20034;-74
2022/03/09 04:56:37;;;;;;;1.23;1.13;;;-0.90;71.90;;;;;;4992556;28;20069;-74
2022/03/09 04:59:03;;;;;;;1.63;0.98;;;-0.90;71.50;;;;;;4992671;28;20030;-74
2022/03/09 05:01:29;;;;;;;0.60;0.60;;;-1.00;71.80;;;;;;4991352;28;20022;-74
2022/03/09 05:03:55;;;;;;;0.60;0.60;;;-1.00;72.00;;;;;;4992518;28;20030;-74
2022/03/09 05:06:20;;;;;;;0.50;0.50;;;-1.10;72.10;;;;;;4992548;28;20438;-73
2022/03/09 05:08:46;;;;;;;0.50;0.50;;;-1.20;72.50;;;;;;5006700;23;20417;-72
2022/03/09 05:11:12;;;;;;;0.43;0.43;;;-1.00;72.80;;;;;;4992597;28;20482;-72
2022/03/09 05:13:38;;;;;;;0.55;0.55;;;-0.80;71.50;;;;;;4992551;28;20544;-72
2022/03/09 05:16:05;;;;;;;3.03;1.58;;;-0.70;70.80;;;;;;4974809;28;20045;-72
2022/03/09 05:18:33;;;;;;;3.88;1.48;;;-0.90;70.90;;;;;;4992730;28;20023;-70
2022/03/09 05:20:58;;;;;;;0.70;0.70;;;-1.20;72.60;;;;;;4992699;28;20421;-71
2022/03/09 05:23:24;;;;;;;0.57;0.57;;;-1.30;73.10;;;;;;4992676;28;20037;-71
2022/03/09 05:25:50;;;;;;;0.90;0.90;;;-1.30;73.50;;;;;;4992371;28;20110;-72
2022/03/09 05:28:15;;;;;;;0.75;0.75;;;-1.20;73.70;;;;;;4991420;28;20394;-71
2022/03/09 05:30:41;;;;;;;0.93;0.93;;;-1.10;73.30;;;;;;4992543;28;20027;-71
2022/03/09 05:33:07;;;;;;;0.60;0.60;;;-1.10;72.80;;;;;;4991249;28;20026;-71
2022/03/09 05:35:32;;;;;;;1.23;1.13;;;-1.30;73.20;;;;;;4992088;28;20031;-71
2022/03/09 05:37:58;;;;;;;1.10;1.10;;;-1.30;73.00;;;;;;4991151;28;20031;-71
2022/03/09 05:40:24;;;;;;;0.68;0.68;;;-1.40;73.40;;;;;;4991144;28;20026;-72
2022/03/09 05:42:50;;;;;;;2.83;1.98;;;-1.60;73.90;;;;;;4991102;28;20049;-71
2022/03/09 05:45:15;;;;;;;0.60;0.60;;;-1.70;74.10;;;;;;5007287;28;20110;-71
2022/03/09 05:47:41;;;;;;;1.15;1.15;;;-1.90;74.50;;;;;;4992171;28;20041;-72
2022/03/09 05:50:27;;;;;;;33.40;28.42;;;-2.10;76.10;;;;;;4991600;28;20030;-72
2022/03/09 05:52:53;;;;;;;1.00;1.00;;;-2.00;75.70;;;;;;4991070;28;20026;-72
2022/03/09 05:55:19;;;;;;;1.67;1.60;;;-2.10;76.10;;;;;;4992185;28;20562;-72
2022/03/09 05:57:45;;;;;;;0.60;0.60;;;-2.20;76.50;;;;;;4991855;28;20022;-72
2022/03/09 06:00:11;;;;;;;1.17;1.17;;;-2.00;76.80;;;;;;4991040;28;20544;-72
2022/03/09 06:02:37;;;;;;;1.67;1.58;;;-1.80;75.70;;;;;;4992321;28;20026;-72
2022/03/09 06:05:03;;;;;;;0.75;0.65;;;-1.60;75.50;;;;;;4991994;28;20030;-72
2022/03/09 06:07:30;;;;;;;2.70;2.05;;;-1.50;75.30;;;;;;4991938;28;20034;-72
2022/03/09 06:09:56;;;;;;;5.40;2.10;;;-1.40;75.10;;;;;;4992064;28;20058;-72
2022/03/09 06:12:22;;;;;;;1.42;1.30;;;-1.30;74.30;;;;;;5007102;28;20062;-72
2022/03/09 06:14:47;;;;;;;1.90;1.67;;;-1.30;74.60;;;;;;4974555;28;20121;-72
2022/03/09 06:17:13;;;;;;;1.65;1.13;;;-1.30;74.50;;;;;;4991844;28;20030;-72
2022/03/09 06:19:39;;;;;;;0.77;0.77;;;-1.30;74.10;;;;;;4992674;28;20018;-73
2022/03/09 06:22:05;;;;;;;0.70;0.70;;;-1.20;74.30;;;;;;4994275;28;20030;-72
2022/03/09 06:24:30;;;;;;;0.98;0.98;;;-1.10;74.50;;;;;;4992899;28;20022;-72
2022/03/09 06:26:56;;;;;;;2.28;1.95;;;-1.00;74.10;;;;;;4993826;28;20105;-72
2022/03/09 06:29:22;;;;;;;3.30;1.70;;;-0.90;73.40;;;;;;4995294;28;20109;-72
2022/03/09 06:31:48;;;;;;;1.15;1.15;;;-0.90;74.40;;;;;;4993795;28;20031;-72
2022/03/09 06:34:14;;;;;;;0.50;0.50;;;-0.80;72.90;;;;;;4994965;28;20029;-72
2022/03/09 06:36:44;;;;;;;2.50;2.40;;;-0.70;72.60;;;;;;4994832;28;20066;-72
2022/03/09 06:39:15;;;;;;;0.40;0.40;;;-0.50;72.30;;;;;;4993501;28;20026;-72
2022/03/09 06:41:44;;;;;;;7.07;3.37;;;-0.20;71.40;;;;;;4995057;28;20019;-72
2022/03/09 06:44:12;;;;;;;1.85;1.40;;;-0.10;70.80;;;;;;4994832;28;20700;-72
2022/03/09 06:46:38;;;;;;;1.08;1.08;;;-0.10;69.80;;;;;;4994600;28;20449;-70
2022/03/09 06:49:04;;;;;;;2.45;2.25;;;-0.10;69.70;;;;;;4994906;28;20018;-70
2022/03/09 06:51:30;;;;;;;6.60;5.97;;;0.10;69.30;;;;;;4994382;28;20084;-69
2022/03/09 06:53:57;;;;;;;1.55;1.15;;;0.10;68.50;;;;;;4994671;28;20118;-71
2022/03/09 06:56:23;;;;;;;7.68;2.47;;;0.10;68.00;;;;;;4994287;28;20033;-71
2022/03/09 06:58:49;;;;;;;0.57;0.57;;;0.30;67.20;;;;;;4994968;28;20019;-70
2022/03/09 07:01:14;;;;;;;0.88;0.88;;;0.40;66.80;;;;;;4994510;28;20490;-70
2022/03/09 07:03:40;;;;;;;1.75;1.48;;;0.60;66.00;;;;;;4994496;28;20461;-70
2022/03/09 07:06:06;;;;;;;0.77;0.77;;;0.60;65.30;;;;;;4994145;28;20092;-70
2022/03/09 07:08:32;;;;;;;0.40;0.40;;;0.70;65.30;;;;;;4993982;28;20510;-71
2022/03/09 07:10:58;;;;;;;11.88;1.25;;;0.90;65.50;;;;;;4994497;28;20041;-71
2022/03/09 07:13:25;;;;;;;0.40;0.40;;;1.10;65.20;;;;;;4993173;28;20038;-70
2022/03/09 07:15:51;;;;;;;0.30;0.30;;;1.40;64.90;;;;;;4993385;28;20093;-70
2022/03/09 07:18:17;;;;;;;0.73;0.73;;;1.50;65.40;;;;;;4994212;28;20029;-71
2022/03/09 07:20:43;;;;;;;0.30;0.30;;;1.70;65.50;;;;;;4992872;28;20018;-70
2022/03/09 07:23:09;;;;;;;0.50;0.50;;;1.70;66.00;;;;;;4994220;28;20022;-70
2022/03/09 07:25:34;;;;;;;0.40;0.40;;;1.80;66.60;;;;;;4993553;28;20026;-70
2022/03/09 07:28:01;;;;;;;0.40;0.40;;;1.80;66.70;;;;;;4993911;28;20102;-70
2022/03/09 07:30:27;;;;;;;0.40;0.40;;;2.10;66.70;;;;;;4993953;28;20046;-70
2022/03/09 07:32:52;;;;;;;0.40;0.40;;;2.30;66.20;;;;;;4993739;28;20032;-70
2022/03/09 07:35:19;;;;;;;0.40;0.40;;;2.40;65.20;;;;;;4993629;28;20037;-70
2022/03/09 07:37:45;;;;;;;0.30;0.30;;;2.50;64.60;;;;;;4992395;28;20026;-71
2022/03/09 07:40:11;;;;;;;0.38;0.38;;;2.60;64.40;;;;;;4993727;28;20030;-71
2022/03/09 07:42:36;;;;;;;0.80;0.80;;;2.70;61.90;;;;;;4992697;28;20077;-71
2022/03/09 07:45:06;;;;;;;1.92;1.83;;;2.60;61.30;;;;;;4992227;28;20058;-71
2022/03/09 07:47:33;;;;;;;0.32;0.32;;;2.50;64.00;;;;;;4993322;28;20030;-71
2022/03/09 07:49:59;;;;;;;0.50;0.50;;;2.40;64.80;;;;;;4993333;28;20030;-71
2022/03/09 07:52:25;;;;;;;0.40;0.40;;;2.40;64.90;;;;;;4992480;28;20032;-71
2022/03/09 07:54:51;;;;;;;0.85;0.65;;;2.30;63.90;;;;;;4993560;28;20030;-71
2022/03/09 07:57:17;;;;;;;1.15;1.15;;;2.30;64.10;;;;;;4991032;28;20032;-71
2022/03/09 07:59:42;;;;;;;2.97;2.17;;;2.20;63.80;;;;;;4993571;28;20081;-71
2022/03/09 08:02:08;;;;;;;0.40;0.40;;;2.30;63.30;;;;;;4992116;28;20027;-71
2022/03/09 08:04:35;;;;;;;0.40;0.40;;;2.50;63.10;;;;;;4990255;28;20258;-71
2022/03/09 08:07:00;;;;;;;0.70;0.70;;;2.60;62.70;;;;;;4993296;28;20073;-71
2022/03/09 08:09:26;;;;;;;1.15;1.15;;;2.70;62.20;;;;;;4993087;28;20065;-71
2022/03/09 08:11:52;;;;;;;0.73;0.73;;;2.90;62.00;;;;;;4991756;28;20026;-71
2022/03/09 08:14:18;;;;;;;0.40;0.40;;;3.10;61.10;;;;;;4992427;28;20080;-72
2022/03/09 08:16:44;;;;;;;1.05;1.00;;;3.10;60.10;;;;;;4991538;28;20089;-72
2022/03/09 08:19:10;;;;;;;0.40;0.40;;;3.30;59.70;;;;;;4991980;28;20041;-73
2022/03/09 08:21:35;;;;;;;0.40;0.40;;;3.40;59.50;;;;;;4991574;28;20022;-72
2022/03/09 08:24:01;;;;;;;1.10;0.57;;;3.50;59.40;;;;;;4990586;28;20022;-72
2022/03/09 08:26:27;;;;;;;0.30;0.30;;;3.70;58.80;;;;;;4989728;28;20098;-73
2022/03/09 08:28:53;;;;;;;0.35;0.35;;;3.80;58.80;;;;;;4992047;28;20027;-72
2022/03/09 08:31:19;;;;;;;0.40;0.40;;;3.90;58.00;;;;;;4991440;28;20498;-72
2022/03/09 08:33:45;;;;;;;0.40;0.40;;;4.00;58.20;;;;;;4991709;28;20022;-72
2022/03/09 08:36:11;;;;;;;0.40;0.40;;;4.00;57.90;;;;;;4991108;28;20038;-72
2022/03/09 08:38:37;;;;;;;0.30;0.30;;;4.10;57.40;;;;;;4974055;28;20022;-72
2022/03/09 08:41:03;;;;;;;0.40;0.40;;;4.10;57.00;;;;;;4991556;28;20394;-73
2022/03/09 08:43:29;;;;;;;2.08;0.93;;;4.20;57.20;;;;;;4991234;28;20028;-71
2022/03/09 08:45:55;;;;;;;0.40;0.40;;;4.30;57.00;;;;;;4989838;28;20061;-71
2022/03/09 08:48:20;;;;;;;0.30;0.30;;;4.40;56.30;;;;;;4991551;28;20026;-71
2022/03/09 08:50:47;;;;;;;0.30;0.30;;;4.50;56.40;;;;;;4991342;28;20034;-71
2022/03/09 08:53:12;;;;;;;1.33;1.20;;;4.60;55.70;;;;;;4991417;28;20033;-71
2022/03/09 08:55:38;;;;;;;1.55;1.45;;;4.70;55.60;;;;;;4991171;28;20026;-71
2022/03/09 08:58:04;;;;;;;0.50;0.50;;;4.80;55.50;;;;;;4991085;28;20096;-71
2022/03/09 09:00:30;;;;;;;1.27;1.20;;;4.80;55.30;;;;;;4990060;28;20117;-72
2022/03/09 09:02:56;;;;;;;2.33;1.65;;;4.90;55.60;;;;;;4989870;28;20109;-71
2022/03/09 09:05:22;;;;;;;0.30;0.30;;;5.00;55.00;;;;;;4991586;28;20033;-71
2022/03/09 09:07:48;;;;;;;0.40;0.40;;;5.00;55.30;;;;;;4990716;28;20039;-72
2022/03/09 09:10:14;;;;;;;0.60;0.60;;;5.20;54.60;;;;;;4991600;28;20430;-72
2022/03/09 09:12:40;;;;;;;0.30;0.30;;;5.40;53.80;;;;;;4991152;28;20109;-72
2022/03/09 09:15:06;;;;;;;0.30;0.30;;;5.50;53.20;;;;;;4991385;28;20521;-72
2022/03/09 09:17:33;;;;;;;1.35;0.85;;;5.70;52.60;;;;;;4990716;28;20030;-73
2022/03/09 09:19:59;;;;;;;0.30;0.30;;;5.90;52.50;;;;;;4990269;28;20076;-72
2022/03/09 09:22:25;;;;;;;15.15;14.15;;;6.20;51.90;;;;;;4990791;28;20030;-72
2022/03/09 09:24:51;;;;;;;10.57;2.15;;;6.70;51.30;;;;;;4989917;28;20052;-72
2022/03/09 09:27:16;;;;;;;0.20;0.20;;;7.20;49.20;;;;;;4990793;28;20130;-72
2022/03/09 09:29:42;;;;;;;0.90;0.90;;;7.50;47.50;;;;;;4991256;28;20030;-72
2022/03/09 09:32:08;;;;;;;0.85;0.63;;;7.80;47.00;;;;;;4990571;28;20517;-72
2022/03/09 09:34:34;;;;;;;0.30;0.30;;;8.10;46.20;;;;;;4991051;28;20023;-72
2022/03/09 09:37:02;;;;;;;0.30;0.30;;;8.30;45.80;;;;;;4990956;28;20134;-71
2022/03/09 09:39:28;;;;;;;0.20;0.20;;;8.80;45.40;;;;;;4986580;28;20570;-72
2022/03/09 09:41:54;;;;;;;9.90;9.27;;;9.40;44.60;;;;;;4990888;28;20031;-71
2022/03/09 09:44:24;;;;;;;0.20;0.20;;;9.70;43.30;;;;;;4991039;28;20490;-72
2022/03/09 09:46:52;;;;;;;0.65;0.65;;;10.00;42.50;;;;;;4990652;28;20030;-72
2022/03/09 09:49:23;;;;;;;0.38;0.38;;;10.20;41.70;;;;;;4990012;28;20048;-72
2022/03/09 09:51:51;;;;;;;0.85;0.70;;;10.30;40.50;;;;;;4990636;28;20018;-71
2022/03/09 09:54:17;;;;;;;0.20;0.20;;;10.90;38.40;;;;;;4991582;28;20034;-72
2022/03/09 09:56:44;;;;;;;1.45;1.35;;;11.40;37.00;;;;;;4994370;28;20148;-72
2022/03/09 09:59:10;;;;;;;4.78;1.27;;;11.50;36.60;;;;;;4994594;28;20509;-72
2022/03/09 10:01:36;;;;;;;0.30;0.30;;;11.80;36.20;;;;;;5009748;28;20462;-72
2022/03/09 10:04:03;;;;;;;0.32;0.32;;;12.00;36.10;;;;;;4994316;28;20055;-72
2022/03/09 10:06:30;;;;;;;0.63;0.52;;;12.20;37.00;;;;;;4994314;28;20030;-72
2022/03/09 10:09:04;;;;;;;1.35;1.25;;;12.30;38.40;;;;;;4993986;28;20042;-72
2022/03/09 10:11:48;;;;;;;0.93;0.52;;;12.60;39.00;;;;;;4994462;28;20479;-72
2022/03/09 10:14:15;;;;;;;1.83;1.73;;;12.70;38.50;;;;;;4993907;28;20041;-72
2022/03/09 10:17:08;;;;;;;1.30;1.20;;;13.00;38.70;;;;;;4994014;28;20069;-72
2022/03/09 10:19:36;;;;;;;1.08;1.08;;;13.60;38.50;;;;;;4992964;28;20031;-72
2022/03/09 10:22:32;;;;;;;5.47;1.92;;;13.80;37.30;;;;;;4992571;28;20489;-72
2022/03/09 10:25:09;;;;;;;1.00;0.80;;;13.80;36.80;;;;;;4993600;28;20058;-72
2022/03/09 10:27:47;;;;;;;1.20;0.82;;;14.00;37.40;;;;;;4993363;28;20022;-72
2022/03/09 10:30:19;;;;;;;2.22;2.10;;;14.40;36.30;;;;;;4992718;28;20034;-72
2022/03/09 10:32:47;;;;;;;1.58;1.27;;;14.70;35.30;;;;;;4993654;28;20034;-72
2022/03/09 10:35:16;;;;;;;2.40;1.45;;;14.80;34.70;;;;;;4993914;28;20034;-72
2022/03/09 10:37:44;;;;;;;1.23;1.20;;;14.90;33.60;;;;;;4992056;28;20042;-72
2022/03/09 10:40:16;;;;;;;0.60;0.60;;;14.70;33.50;;;;;;4992720;28;20029;-71
2022/03/09 10:42:42;;;;;;;0.28;0.28;;;15.20;33.20;;;;;;4992023;28;20022;-74
2022/03/09 10:45:09;;;;;;;0.65;0.65;;;15.50;32.40;;;;;;4993734;28;20470;-72
2022/03/09 10:47:48;;;;;;;0.70;0.70;;;15.60;33.50;;;;;;4993186;28;20014;-74
2022/03/09 10:50:18;;;;;;;0.90;0.90;;;15.40;33.10;;;;;;4989705;28;20050;-73
2022/03/09 10:53:04;;;;;;;1.10;1.05;;;15.40;34.20;;;;;;4992473;28;20081;-73
2022/03/09 10:55:32;;;;;;;1.55;1.38;;;15.50;32.50;;;;;;4993242;28;20046;-72
2022/03/09 10:58:18;;;;;;;2.53;1.17;;;16.10;30.70;;;;;;4992995;28;20444;-71
2022/03/09 11:00:49;;;;;;;2.67;2.45;;;16.40;31.80;;;;;;4992212;28;20061;-73
2022/03/09 11:03:18;;;;;;;4.82;3.45;;;16.20;30.90;;;;;;4993213;28;20093;-72
2022/03/09 11:05:54;;;;;;;2.10;1.48;;;16.20;30.30;;;;;;4992797;28;20026;-72
2022/03/09 11:08:28;;;;;;;2.03;1.85;;;16.10;32.10;;;;;;4990728;28;20034;-72
2022/03/09 11:10:55;;;;;;;1.30;1.10;;;15.90;31.60;;;;;;4991971;28;20030;-72
2022/03/09 11:13:22;;;;;;;1.30;1.20;;;15.70;31.90;;;;;;4992788;28;20035;-72
2022/03/09 11:15:48;;;;;;;2.25;1.70;;;16.10;31.50;;;;;;4993056;28;20018;-72
2022/03/09 11:18:19;;;;;;;1.17;1.10;;;16.60;30.90;;;;;;4991371;28;20483;-72
2022/03/09 11:20:50;;;;;;;5.93;2.47;;;17.00;28.60;;;;;;4993277;28;20026;-73
2022/03/09 11:23:17;;;;;;;17.67;2.43;;;17.40;28.00;;;;;;4990627;28;20408;-72
2022/03/09 11:25:49;;;;;;;9.23;2.15;;;17.00;28.00;;;;;;4992778;28;20030;-72
2022/03/09 11:28:24;;;;;;;11.75;4.72;;;16.80;28.80;;;;;;4992761;28;20109;-72
2022/03/09 11:30:55;;;;;;;1.00;0.77;;;17.40;28.30;;;;;;4992861;28;20033;-72
2022/03/09 11:33:45;;;;;;;4.15;2.05;;;17.80;27.70;;;;;;4992341;28;20401;-72
2022/03/09 11:36:29;;;;;;;7.70;4.93;;;17.50;28.30;;;;;;4991167;28;20536;-72
2022/03/09 11:39:04;;;;;;;4.38;1.13;;;17.60;28.10;;;;;;4989491;28;20077;-72
2022/03/09 11:41:36;;;;;;;4.28;2.38;;;17.90;27.80;;;;;;4991552;28;20092;-72
2022/03/09 11:44:29;;;;;;;2.90;2.55;;;18.00;26.80;;;;;;4987950;28;20061;-72
2022/03/09 11:47:01;;;;;;;1.23;1.15;;;18.20;26.10;;;;;;4990215;28;20037;-72
2022/03/09 11:49:53;;;;;;;0.43;0.43;;;18.10;25.40;;;;;;4991927;28;20085;-72
2022/03/09 11:52:21;;;;;;;0.93;0.63;;;17.50;25.80;;;;;;4991307;28;20030;-73
2022/03/09 11:54:49;;;;;;;2.45;2.03;;;17.60;26.20;;;;;;4990505;28;20039;-72
2022/03/09 11:57:17;;;;;;;0.10;0.10;;;17.40;25.90;;;;;;4992143;28;20062;-72
2022/03/09 12:00:07;;;;;;;0.30;0.30;;;17.70;26.70;;;;;;4990636;28;20556;-71
2022/03/09 12:02:43;;;;;;;3.50;2.00;;;17.80;26.90;;;;;;4992533;28;20025;-72
2022/03/09 12:05:25;;;;;;;1.98;1.42;;;17.70;25.90;;;;;;4991719;28;20471;-73
2022/03/09 12:07:55;;;;;;;;;;;17.70;26.20;;;;;;4992138;28;20064;-72
2022/03/09 12:10:39;;;;;;;8.45;6.65;;;18.00;25.90;;;;;;4992080;28;20289;-72
2022/03/09 12:13:17;;;;;;;2.65;1.85;;;18.20;26.10;;;;;;4992161;28;20023;-72
2022/03/09 12:16:15;;;;;;;9.27;3.58;;;17.90;26.50;;;;;;4988243;28;20064;-72
2022/03/09 12:18:44;;;;;;;1.17;1.05;;;17.80;26.00;;;;;;4988568;28;20585;-72
2022/03/09 12:21:13;;;;;;;2.15;1.00;;;18.20;26.10;;;;;;4990560;28;20299;-72
2022/03/09 12:24:04;;;;;;;1.85;1.33;;;17.50;26.30;;;;;;4990594;28;20019;-72
2022/03/09 12:26:56;;;;;;;4.28;3.92;;;17.80;26.50;;;;;;4990836;28;20397;-72
2022/03/09 12:29:28;;;;;;;6.28;1.60;;;18.50;25.90;;;;;;4990493;28;20602;-72
2022/03/09 12:31:59;;;;;;;;;;;18.30;25.80;;;;;;4991247;28;20037;-72
2022/03/09 12:34:27;;;;;;;6.53;3.65;;;18.50;25.60;;;;;;4989168;28;20362;-72
2022/03/09 12:36:53;;;;;;;1.30;1.20;;;18.40;25.10;;;;;;4989248;28;20165;-72
2022/03/09 12:39:19;;;;;;;2.85;1.45;;;17.90;25.80;;;;;;4991195;28;20077;-72
2022/03/09 12:41:51;;;;;;;0.82;0.82;;;17.70;26.00;;;;;;4990556;28;20030;-72
2022/03/09 12:44:19;;;;;;;0.93;0.93;;;17.70;25.80;;;;;;4991263;28;20046;-72
2022/03/09 12:46:49;;;;;;;4.55;2.20;;;16.90;26.00;;;;;;4991642;28;20081;-72
2022/03/09 12:49:43;;;;;;;1.00;0.93;;;17.00;25.70;;;;;;4991266;28;20030;-72
2022/03/09 12:52:15;;;;;;;2.83;2.28;;;17.60;26.30;;;;;;4989700;28;20056;-72
2022/03/09 12:54:48;;;;;;;0.30;0.30;;;17.50;26.00;;;;;;4990880;28;20030;-71
2022/03/09 12:57:24;;;;;;;1.45;1.35;;;16.90;26.50;;;;;;4991250;28;20030;-72